Time;durP1;ratioP1;P1;durP2;ratioP2;P2;SDS_P1;SDS_P2;PMS_P1;PMS_P2;Temp;Humidity;BMP_temperature;BMP_pressure;BME280_temperature;BME280_humidity;BME280_pressure;Samples;Min_cycle;Max_cycle;Signal;HPM_P1;HPM_P2
2022/04/24 00:04:04;;;;;;;7.30;6.70;;;12.60;1.90;;;;;;2611818;54;20165;-81
2022/04/24 00:10:13;;;;;;;8.00;7.20;;;12.50;2.90;;;;;;2612098;54;20417;-79
2022/04/24 00:16:21;;;;;;;7.83;7.13;;;12.20;4.50;;;;;;2614034;54;20394;-81
2022/04/24 00:22:28;;;;;;;9.03;7.67;;;12.10;4.90;;;;;;2614645;54;20232;-81
2022/04/24 00:28:35;;;;;;;8.53;7.70;;;12.00;5.90;;;;;;2612167;54;20175;-81
2022/04/24 00:45:45;;;;;;;7.67;7.03;;;11.80;7.60;;;;;;2613417;54;20421;-79
2022/04/24 00:51:52;;;;;;;9.53;8.73;;;11.70;7.90;;;;;;2613853;54;20247;-76
2022/04/24 00:57:59;;;;;;;8.60;7.70;;;11.60;8.90;;;;;;2610450;54;20389;-76
2022/04/24 01:04:07;;;;;;;8.10;7.30;;;11.50;9.80;;;;;;2614922;54;20730;-79
2022/04/24 01:10:13;;;;;;;8.60;7.87;;;11.30;11.80;;;;;;2613792;54;20391;-81
2022/04/24 01:16:21;;;;;;;8.27;7.57;;;11.30;13.10;;;;;;2612337;54;20215;-77
2022/04/24 01:22:28;;;;;;;8.50;7.80;;;11.20;14.00;;;;;;2612491;54;20409;-79
2022/04/24 01:28:35;;;;;;;11.50;7.70;;;11.10;15.20;;;;;;2614834;54;20435;-79
2022/04/24 01:45:46;;;;;;;8.30;7.60;;;10.30;27.90;;;;;;2613780;54;20390;-80
2022/04/24 01:51:52;;;;;;;10.30;9.27;;;10.20;29.10;;;;;;2614377;39;20768;-79
2022/04/24 01:57:59;;;;;;;10.30;9.37;;;10.20;30.60;;;;;;2613497;54;20178;-79
2022/04/24 02:04:05;;;;;;;9.43;8.53;;;10.00;32.80;;;;;;2613463;54;20703;-81
2022/04/24 02:10:11;;;;;;;9.33;8.53;;;10.00;34.10;;;;;;2610035;54;20178;-80
2022/04/24 02:16:18;;;;;;;10.53;9.63;;;10.00;34.30;;;;;;2612233;39;20655;-74
2022/04/24 02:22:31;;;;;;;8.50;7.70;;;9.90;36.50;;;;;;2612657;54;20333;-75
2022/04/24 02:28:38;;;;;;;12.13;9.77;;;9.80;39.40;;;;;;2612483;54;20406;-75
2022/04/24 02:45:46;;;;;;;11.43;10.33;;;9.30;57.10;;;;;;2612350;39;20955;-79
2022/04/24 02:51:53;;;;;;;9.40;8.40;;;9.30;58.20;;;;;;2614233;54;20406;-80
2022/04/24 02:58:00;;;;;;;18.63;11.43;;;9.20;62.80;;;;;;2613363;54;20163;-78
2022/04/24 03:04:06;;;;;;;10.93;9.80;;;9.30;61.80;;;;;;2614499;54;20450;-79
2022/04/24 03:10:12;;;;;;;10.07;9.10;;;9.20;62.00;;;;;;2611896;54;20193;-82
2022/04/24 03:16:19;;;;;;;13.80;11.20;;;9.30;62.80;;;;;;2615771;54;20485;-80
2022/04/24 03:22:30;;;;;;;10.83;9.83;;;9.20;64.90;;;;;;2615700;54;20167;-80
2022/04/24 03:28:37;;;;;;;12.87;11.60;;;9.20;65.40;;;;;;2616249;54;20922;-80
2022/04/24 03:39:22;;;;;;;11.43;10.43;;;9.10;68.00;;;;;;2615159;54;20487;-80
2022/04/24 03:45:29;;;;;;;12.13;10.93;;;9.10;72.50;;;;;;2611395;54;20527;-80
2022/04/24 03:51:36;;;;;;;11.93;10.73;;;9.00;77.00;;;;;;2615233;54;20408;-79
2022/04/24 03:57:41;;;;;;;13.67;11.70;;;8.90;85.20;;;;;;2614247;54;20148;-79
2022/04/24 04:03:48;;;;;;;13.37;11.93;;;8.80;89.30;;;;;;2610462;54;20687;-79
2022/04/24 04:09:55;;;;;;;13.07;10.73;;;8.80;90.90;;;;;;2614647;39;20559;-78
2022/04/24 04:16:02;;;;;;;12.37;11.13;;;8.70;93.10;;;;;;2615071;54;20401;-79
2022/04/24 04:22:09;;;;;;;11.30;10.20;;;8.70;95.80;;;;;;2612780;54;21404;-78
2022/04/24 04:28:15;;;;;;;11.10;9.97;;;8.60;97.60;;;;;;2616219;54;20159;-77
2022/04/24 04:34:22;;;;;;;11.07;10.07;;;8.60;99.10;;;;;;2613764;54;20176;-80
2022/04/24 04:44:10;;;;;;;10.63;9.60;;;8.60;99.90;;;;;;2616131;54;20434;-80
2022/04/24 04:50:17;;;;;;;10.67;9.60;;;8.60;99.90;;;;;;2614045;54;20180;-79
2022/04/24 04:56:25;;;;;;;13.00;10.40;;;8.60;99.90;;;;;;2611279;46;20404;-78
2022/04/24 05:02:36;;;;;;;13.43;10.70;;;8.60;99.90;;;;;;2616363;54;20878;-79
2022/04/24 05:08:43;;;;;;;13.17;10.73;;;8.60;99.90;;;;;;2612770;54;20473;-77
2022/04/24 05:14:50;;;;;;;10.83;9.73;;;8.70;99.90;;;;;;2615058;54;20688;-76
2022/04/24 05:20:57;;;;;;;11.77;10.47;;;8.90;99.90;;;;;;2620873;54;20186;-79
2022/04/24 05:27:05;;;;;;;10.77;9.70;;;9.10;96.90;;;;;;2617800;54;20402;-78
2022/04/24 05:33:17;;;;;;;10.10;9.10;;;9.80;90.70;;;;;;2615450;54;20401;-80
2022/04/24 05:43:56;;;;;;;10.80;9.23;;;10.40;67.70;;;;;;2616706;54;20390;-80
2022/04/24 05:50:03;;;;;;;9.70;8.67;;;11.00;56.20;;;;;;2613833;54;20405;-81
2022/04/24 05:59:31;;;;;;;9.90;8.90;;;11.60;42.30;;;;;;2615035;54;20927;-80
2022/04/24 06:05:19;;;;;;;9.33;8.43;;;11.70;40.70;;;;;;2614472;54;20150;-81
2022/04/24 06:11:06;;;;;;;9.27;8.40;;;11.90;38.20;;;;;;2614546;39;20566;-80
2022/04/24 06:16:54;;;;;;;9.20;8.30;;;12.20;30.00;;;;;;2613679;54;20146;-80
2022/04/24 06:22:47;;;;;;;8.63;7.83;;;12.50;25.60;;;;;;2612412;54;20408;-81
2022/04/24 06:28:35;;;;;;;9.50;8.60;;;12.70;21.40;;;;;;2616120;54;20435;-80
2022/04/24 06:34:23;;;;;;;8.47;7.63;;;13.00;19.20;;;;;;2615417;46;20182;-82
2022/04/24 06:43:51;;;;;;;9.97;8.97;;;13.20;15.50;;;;;;2614641;54;20383;-81
2022/04/24 06:49:58;;;;;;;9.73;8.70;;;13.80;12.90;;;;;;2614431;54;20282;-81
2022/04/24 06:56:05;;;;;;;12.43;9.83;;;14.30;8.00;;;;;;2677762;36;20858;-76
2022/04/24 06:58:31;;;;;;;10.03;9.00;;;14.00;8.70;;;;;;2606454;54;20403;-78
2022/04/24 07:00:57;;;;;;;9.07;8.07;;;13.90;7.90;;;;;;2605106;54;20158;-78
2022/04/24 07:03:26;;;;;;;9.03;8.13;;;13.80;9.30;;;;;;2605646;54;20165;-78
2022/04/24 07:06:00;;;;;;;10.97;9.97;;;13.90;8.80;;;;;;2611583;39;20646;-77
2022/04/24 07:08:29;;;;;;;10.20;9.30;;;14.10;8.20;;;;;;2611728;46;20452;-82
2022/04/24 07:10:55;;;;;;;10.70;9.10;;;14.20;6.90;;;;;;2612154;54;20411;-82
2022/04/24 07:13:22;;;;;;;10.83;9.17;;;14.30;6.20;;;;;;2608654;54;20480;-77
2022/04/24 07:15:48;;;;;;;9.83;8.83;;;14.60;6.00;;;;;;2611487;54;20398;-77
2022/04/24 07:18:13;;;;;;;9.10;8.20;;;14.80;3.60;;;;;;2610078;47;20423;-77
2022/04/24 07:20:39;;;;;;;9.83;8.93;;;14.80;2.90;;;;;;2610927;54;20165;-78
2022/04/24 07:23:05;;;;;;;10.97;10.07;;;14.90;4.30;;;;;;2609613;54;20139;-78
2022/04/24 07:25:43;;;;;;;10.70;9.63;;;15.20;2.50;;;;;;2612167;54;20628;-77
2022/04/24 07:28:14;;;;;;;10.60;9.50;;;15.40;1.00;;;;;;2611109;54;20412;-77
2022/04/24 07:30:41;;;;;;;11.23;10.10;;;15.50;1.00;;;;;;2604873;54;20423;-76
2022/04/24 07:33:07;;;;;;;10.63;9.73;;;15.40;1.00;;;;;;2610028;54;20404;-77
2022/04/24 07:35:35;;;;;;;10.37;9.50;;;15.40;1.00;;;;;;2611022;39;20513;-76
2022/04/24 07:38:01;;;;;;;10.20;9.20;;;15.60;1.00;;;;;;2610701;54;20408;-77
2022/04/24 07:40:28;;;;;;;10.50;9.57;;;15.90;1.00;;;;;;2613206;54;20397;-77
2022/04/24 07:43:01;;;;;;;10.27;9.37;;;16.10;1.00;;;;;;2611722;54;20467;-78
2022/04/24 07:45:34;;;;;;;12.20;11.13;;;16.30;1.00;;;;;;2613294;47;20503;-78
2022/04/24 07:48:01;;;;;;;11.50;9.90;;;16.10;1.00;;;;;;2612427;54;20395;-77
2022/04/24 07:50:33;;;;;;;10.20;9.30;;;16.00;1.00;;;;;;2611796;47;20468;-77
2022/04/24 07:52:58;;;;;;;10.73;9.77;;;16.30;1.00;;;;;;2612669;54;20431;-77
2022/04/24 07:55:25;;;;;;;9.77;8.97;;;16.30;1.00;;;;;;2612784;54;20429;-76
2022/04/24 07:57:54;;;;;;;11.63;10.63;;;16.30;1.00;;;;;;2613306;31;20704;-77
2022/04/24 08:00:26;;;;;;;13.37;10.40;;;16.50;1.00;;;;;;2612762;47;20500;-78
2022/04/24 08:03:04;;;;;;;13.43;10.63;;;16.60;1.00;;;;;;2612378;54;20428;-76
2022/04/24 08:05:42;;;;;;;12.80;9.80;;;16.50;1.00;;;;;;2610917;54;20508;-76
2022/04/24 08:08:17;;;;;;;11.90;10.27;;;16.40;1.00;;;;;;2610315;54;20460;-83
2022/04/24 08:10:47;;;;;;;11.77;10.77;;;16.70;1.00;;;;;;2613619;54;20401;-83
2022/04/24 08:13:13;;;;;;;10.33;9.43;;;17.20;1.00;;;;;;2612628;51;20428;-75
2022/04/24 08:15:39;;;;;;;13.77;10.63;;;17.80;1.00;;;;;;2611982;54;21013;-76
2022/04/24 08:18:06;;;;;;;11.47;10.37;;;18.10;1.00;;;;;;2612126;54;20425;-79
2022/04/24 08:20:34;;;;;;;11.43;10.53;;;18.40;1.00;;;;;;2612981;54;20496;-80
2022/04/24 08:23:01;;;;;;;11.40;10.50;;;18.10;1.00;;;;;;2611682;54;20425;-79
2022/04/24 08:25:37;;;;;;;12.13;10.83;;;17.90;1.00;;;;;;2610967;54;20413;-79
2022/04/24 08:28:29;;;;;;;10.60;9.80;;;17.80;1.00;;;;;;2611505;54;20489;-84
2022/04/24 08:30:55;;;;;;;10.70;9.70;;;17.90;1.00;;;;;;2611833;54;20434;-87
2022/04/24 08:33:21;;;;;;;11.97;10.97;;;18.10;1.00;;;;;;2614601;54;20422;-79
2022/04/24 08:35:48;;;;;;;11.93;10.93;;;18.30;1.00;;;;;;2610718;54;20417;-77
2022/04/24 08:38:14;;;;;;;13.33;12.23;;;18.30;1.00;;;;;;2612257;54;20419;-84
2022/04/24 08:40:40;;;;;;;11.63;10.63;;;18.20;1.00;;;;;;2614179;54;21354;-83
2022/04/24 08:43:06;;;;;;;11.63;10.63;;;18.30;1.00;;;;;;2613983;54;20492;-85
2022/04/24 08:45:33;;;;;;;12.77;11.57;;;18.40;1.00;;;;;;2616528;54;20428;-85
2022/04/24 08:47:59;;;;;;;12.73;11.70;;;18.20;1.00;;;;;;2615253;54;20422;-83
2022/04/24 08:50:31;;;;;;;12.97;11.87;;;18.00;1.00;;;;;;2614015;54;21086;-85
2022/04/24 08:52:57;;;;;;;12.37;11.17;;;18.20;1.00;;;;;;2614724;54;20520;-83
2022/04/24 08:55:26;;;;;;;11.83;10.93;;;18.10;1.00;;;;;;2614436;54;20413;-86
2022/04/24 08:57:52;;;;;;;12.47;11.47;;;18.10;1.00;;;;;;2613772;54;20421;-84
2022/04/24 09:00:18;;;;;;;12.13;11.03;;;18.40;1.00;;;;;;2611151;54;20623;-77
2022/04/24 09:02:44;;;;;;;12.40;11.40;;;18.40;1.00;;;;;;2612282;54;20416;-77
2022/04/24 09:05:11;;;;;;;14.00;11.60;;;18.40;1.00;;;;;;2612204;39;20822;-77
2022/04/24 09:07:39;;;;;;;13.37;12.13;;;18.50;1.00;;;;;;2612967;54;20183;-79
2022/04/24 09:10:09;;;;;;;12.40;11.17;;;18.50;1.00;;;;;;2614369;54;20414;-77
2022/04/24 09:12:35;;;;;;;11.70;10.60;;;18.50;1.00;;;;;;2614002;54;20441;-79
2022/04/24 09:15:02;;;;;;;11.73;10.70;;;18.50;1.00;;;;;;2615950;54;20431;-85
2022/04/24 09:17:30;;;;;;;12.77;11.67;;;18.60;1.00;;;;;;2621539;54;20401;-86
2022/04/24 09:19:58;;;;;;;13.63;12.23;;;19.00;1.00;;;;;;2616686;47;20490;-77
2022/04/24 09:22:25;;;;;;;12.57;11.47;;;19.10;1.00;;;;;;2611166;54;20404;-78
2022/04/24 09:24:59;;;;;;;12.60;11.40;;;19.10;1.00;;;;;;2616690;54;20422;-85
2022/04/24 09:27:26;;;;;;;13.70;12.50;;;19.40;1.00;;;;;;2611987;47;20437;-86
2022/04/24 09:29:56;;;;;;;13.20;11.97;;;19.50;1.00;;;;;;2611576;54;20415;-76
2022/04/24 09:32:24;;;;;;;13.20;12.20;;;19.60;1.00;;;;;;2612015;39;20847;-76
2022/04/24 09:34:52;;;;;;;13.30;12.27;;;19.90;1.00;;;;;;2611897;54;20422;-83
2022/04/24 09:37:19;;;;;;;15.13;13.83;;;20.20;1.00;;;;;;2611747;54;20425;-82
2022/04/24 09:39:45;;;;;;;15.37;13.50;;;19.80;1.00;;;;;;2611813;54;20441;-82
2022/04/24 09:42:13;;;;;;;15.07;13.77;;;19.40;1.00;;;;;;2610027;54;20457;-83
2022/04/24 09:44:45;;;;;;;14.10;13.00;;;19.30;1.00;;;;;;2610172;54;20407;-85
2022/04/24 09:47:12;;;;;;;14.80;13.40;;;19.50;1.00;;;;;;2610407;54;20612;-85
2022/04/24 09:49:46;;;;;;;14.77;13.40;;;19.70;1.00;;;;;;2612742;47;20431;-73
2022/04/24 09:52:14;;;;;;;14.40;13.30;;;19.40;1.00;;;;;;2610918;54;20405;-74
2022/04/24 09:54:45;;;;;;;15.00;13.33;;;19.60;1.00;;;;;;2612278;54;20487;-82
2022/04/24 09:57:12;;;;;;;13.63;12.53;;;19.90;1.00;;;;;;2611283;54;20434;-80
2022/04/24 09:59:43;;;;;;;13.10;12.00;;;20.30;1.00;;;;;;2613666;54;20404;-85
2022/04/24 10:02:11;;;;;;;14.80;13.60;;;20.00;1.00;;;;;;2612888;54;20422;-83
2022/04/24 10:04:38;;;;;;;13.97;12.60;;;19.80;1.00;;;;;;2613123;54;20425;-77
2022/04/24 10:07:08;;;;;;;12.83;11.67;;;20.00;1.00;;;;;;2612577;54;20420;-77
2022/04/24 10:09:38;;;;;;;13.47;12.27;;;20.40;1.00;;;;;;2611785;54;20430;-76
2022/04/24 10:12:25;;;;;;;14.50;13.17;;;20.70;1.00;;;;;;2612040;54;20399;-77
2022/04/24 10:15:02;;;;;;;14.03;12.83;;;21.00;1.00;;;;;;2611865;47;21311;-78
2022/04/24 10:18:05;;;;;;;14.83;12.50;;;21.30;1.00;;;;;;2611298;54;20400;-77
2022/04/24 10:20:58;;;;;;;13.93;11.90;;;21.40;1.00;;;;;;2612300;39;20474;-77
2022/04/24 10:23:29;;;;;;;13.60;12.50;;;21.30;1.00;;;;;;2611043;54;20423;-78
2022/04/24 10:25:55;;;;;;;15.03;13.73;;;21.50;1.00;;;;;;2611061;54;20436;-78
2022/04/24 10:28:21;;;;;;;13.10;11.87;;;21.40;1.00;;;;;;2610862;54;20390;-77
2022/04/24 10:31:03;;;;;;;11.83;11.03;;;21.50;1.00;;;;;;2612219;54;21055;-78
2022/04/24 10:33:32;;;;;;;13.47;12.23;;;21.40;1.00;;;;;;2612493;47;20484;-77
2022/04/24 10:36:05;;;;;;;13.13;12.13;;;21.30;1.00;;;;;;2610201;47;20438;-77
2022/04/24 10:38:32;;;;;;;13.37;12.37;;;21.30;1.00;;;;;;2612767;54;20458;-73
2022/04/24 10:40:59;;;;;;;13.43;12.43;;;21.40;1.00;;;;;;2612913;54;20441;-75
2022/04/24 10:43:34;;;;;;;13.80;12.70;;;21.40;1.00;;;;;;2612801;54;20448;-77
2022/04/24 10:46:00;;;;;;;13.17;12.00;;;21.30;1.00;;;;;;2611728;54;20919;-77
2022/04/24 10:48:33;;;;;;;14.93;12.27;;;21.90;1.00;;;;;;2612758;39;20818;-77
2022/04/24 10:50:59;;;;;;;12.13;11.23;;;22.00;1.00;;;;;;2610918;47;20431;-78
2022/04/24 10:53:25;;;;;;;14.07;12.97;;;21.90;1.00;;;;;;2610398;47;20503;-80
2022/04/24 10:56:01;;;;;;;12.90;12.00;;;22.00;1.00;;;;;;2612303;47;20250;-84
2022/04/24 10:58:27;;;;;;;13.80;12.80;;;21.90;1.00;;;;;;2612102;54;20414;-84
2022/04/24 11:00:53;;;;;;;13.43;12.20;;;21.80;1.00;;;;;;2610731;47;20435;-85
2022/04/24 11:03:19;;;;;;;13.00;12.00;;;21.90;1.00;;;;;;2611292;54;20399;-75
2022/04/24 11:05:49;;;;;;;12.20;11.30;;;21.60;1.00;;;;;;2611493;39;21942;-75
2022/04/24 11:08:20;;;;;;;12.93;11.93;;;21.10;1.00;;;;;;2612717;54;20423;-79
2022/04/24 11:10:50;;;;;;;15.10;13.73;;;20.70;1.00;;;;;;2610860;54;20426;-81
2022/04/24 11:13:20;;;;;;;14.07;12.67;;;20.50;1.00;;;;;;2611662;54;20442;-77
2022/04/24 11:15:47;;;;;;;11.87;10.97;;;20.80;1.00;;;;;;2610496;54;21456;-78
2022/04/24 11:18:22;;;;;;;14.73;13.63;;;21.10;1.00;;;;;;2612891;54;20441;-83
2022/04/24 11:21:03;;;;;;;13.40;12.40;;;20.80;1.00;;;;;;2613623;54;20416;-83
2022/04/24 11:23:37;;;;;;;12.30;11.00;;;21.20;1.00;;;;;;2613004;54;20415;-88
2022/04/24 11:26:06;;;;;;;13.67;12.47;;;21.10;1.00;;;;;;2612794;54;20401;-83
2022/04/24 11:28:34;;;;;;;13.97;12.80;;;20.20;1.00;;;;;;2614248;54;20395;-77
2022/04/24 11:31:17;;;;;;;13.17;12.03;;;20.10;1.00;;;;;;2612116;39;20802;-77
2022/04/24 11:34:05;;;;;;;12.90;11.80;;;20.10;1.00;;;;;;2612437;54;20422;-80
2022/04/24 11:36:35;;;;;;;12.30;11.40;;;19.60;1.00;;;;;;2611044;54;20409;-77
2022/04/24 11:39:03;;;;;;;13.97;11.90;;;19.40;1.00;;;;;;2612424;54;20969;-79
2022/04/24 11:41:31;;;;;;;13.00;11.80;;;20.20;1.00;;;;;;2611404;54;20442;-79
2022/04/24 11:44:01;;;;;;;12.77;11.67;;;20.70;1.00;;;;;;2612112;54;20501;-86
2022/04/24 11:52:19;;;;;;;12.63;11.53;;;19.10;1.00;;;;;;2610652;54;20407;-76
2022/04/24 11:54:46;;;;;;;12.80;11.50;;;19.20;1.00;;;;;;2612420;54;20428;-84
2022/04/24 11:57:13;;;;;;;13.30;11.97;;;19.30;1.00;;;;;;2612511;54;20931;-85
2022/04/24 11:59:39;;;;;;;13.80;11.30;;;19.90;1.00;;;;;;2610024;47;20531;-82
2022/04/24 12:02:09;;;;;;;11.47;10.47;;;20.20;1.00;;;;;;2605563;54;20984;-84
2022/04/24 12:04:38;;;;;;;15.67;12.13;;;20.00;1.00;;;;;;2612078;54;20198;-80
2022/04/24 12:07:06;;;;;;;12.70;11.80;;;20.20;1.00;;;;;;2613115;54;20376;-81
2022/04/24 12:09:34;;;;;;;12.80;11.70;;;20.50;1.00;;;;;;2610884;54;21440;-82
2022/04/24 12:12:18;;;;;;;12.00;11.00;;;20.50;1.00;;;;;;2611258;54;20515;-81
2022/04/24 12:14:53;;;;;;;14.30;12.83;;;20.90;1.00;;;;;;2613392;39;20901;-85
2022/04/24 12:17:21;;;;;;;12.47;11.43;;;21.00;1.00;;;;;;2614715;54;20682;-88
2022/04/24 12:19:51;;;;;;;12.40;11.40;;;20.60;1.00;;;;;;2613034;54;20395;-74
2022/04/24 12:22:35;;;;;;;12.30;11.27;;;20.90;1.00;;;;;;2611855;54;20419;-74
2022/04/24 12:25:19;;;;;;;10.80;10.00;;;21.30;1.00;;;;;;2612860;54;20480;-76
2022/04/24 12:27:53;;;;;;;14.80;13.40;;;21.60;1.00;;;;;;2609383;54;20424;-74
2022/04/24 12:30:19;;;;;;;14.20;13.00;;;21.80;1.00;;;;;;2609738;54;20994;-78
2022/04/24 12:32:46;;;;;;;11.70;10.60;;;21.80;1.00;;;;;;2611584;54;20412;-81
2022/04/24 12:35:29;;;;;;;11.30;10.50;;;21.80;1.00;;;;;;2610915;46;20566;-76
2022/04/24 12:37:55;;;;;;;13.33;12.30;;;21.60;1.00;;;;;;2612683;54;20496;-79
2022/04/24 12:40:21;;;;;;;11.03;10.13;;;21.50;1.00;;;;;;2613309;54;20455;-82
2022/04/24 12:42:54;;;;;;;10.80;9.90;;;20.90;1.00;;;;;;2612714;54;20423;-85
2022/04/24 12:45:21;;;;;;;11.43;10.60;;;20.60;1.00;;;;;;2614368;39;20399;-81
2022/04/24 12:47:48;;;;;;;12.30;11.33;;;20.30;1.00;;;;;;2613191;51;20438;-84
2022/04/24 12:50:18;;;;;;;10.73;9.90;;;20.30;1.00;;;;;;2612101;54;20454;-78
2022/04/24 12:52:44;;;;;;;11.30;10.40;;;20.40;1.00;;;;;;2612095;47;20521;-78
2022/04/24 12:55:11;;;;;;;13.03;10.60;;;20.50;1.00;;;;;;2611346;54;20427;-80
2022/04/24 12:57:37;;;;;;;10.43;9.60;;;20.80;1.00;;;;;;2612638;47;20458;-79
2022/04/24 13:00:07;;;;;;;12.03;10.97;;;20.40;1.00;;;;;;2610672;54;20485;-80
2022/04/24 13:02:33;;;;;;;11.43;10.33;;;19.90;1.00;;;;;;2611288;54;20434;-82
2022/04/24 13:05:29;;;;;;;12.20;11.00;;;19.90;1.00;;;;;;2607419;54;20403;-82
2022/04/24 13:07:57;;;;;;;9.87;9.13;;;20.60;1.00;;;;;;2610272;54;20501;-79
2022/04/24 13:10:25;;;;;;;10.20;9.30;;;20.30;1.00;;;;;;2609894;54;20484;-80
2022/04/24 13:12:51;;;;;;;10.37;9.37;;;19.90;1.00;;;;;;2608866;54;20426;-80
2022/04/24 13:15:17;;;;;;;10.23;9.43;;;19.80;1.00;;;;;;2610648;46;20446;-83
2022/04/24 13:20:27;;;;;;;10.10;9.30;;;21.30;1.00;;;;;;2606175;47;20454;-83
2022/04/24 13:22:53;;;;;;;10.30;9.33;;;21.60;1.00;;;;;;2609763;47;20438;-81
2022/04/24 13:25:21;;;;;;;10.10;9.30;;;20.80;1.00;;;;;;2612134;54;20154;-85
2022/04/24 13:27:49;;;;;;;10.27;9.57;;;20.20;1.00;;;;;;2611463;54;20422;-82
2022/04/24 13:30:15;;;;;;;10.00;9.10;;;19.80;1.00;;;;;;2611077;31;20912;-78
2022/04/24 13:32:41;;;;;;;10.90;9.90;;;20.30;1.00;;;;;;2611142;54;20419;-78
2022/04/24 13:35:07;;;;;;;10.57;9.73;;;20.80;1.00;;;;;;2609215;54;20181;-80
2022/04/24 13:40:19;;;;;;;8.90;8.27;;;22.20;1.00;;;;;;2609848;54;20421;-79
2022/04/24 13:42:46;;;;;;;9.70;9.00;;;21.70;1.00;;;;;;2609749;54;20431;-80
2022/04/24 13:45:12;;;;;;;11.23;10.03;;;20.80;1.00;;;;;;2612403;54;20423;-80
2022/04/24 13:47:39;;;;;;;10.90;9.90;;;20.00;1.00;;;;;;2613429;54;20599;-79
2022/04/24 13:50:05;;;;;;;10.47;9.47;;;19.40;1.00;;;;;;2612218;54;20188;-80
2022/04/24 13:52:31;;;;;;;10.60;9.60;;;19.10;1.00;;;;;;2612653;54;21055;-80
2022/04/24 13:54:57;;;;;;;8.77;8.17;;;19.00;1.00;;;;;;2610558;54;21632;-81
2022/04/24 13:57:23;;;;;;;9.83;8.93;;;19.50;1.00;;;;;;2611298;54;20496;-79
2022/04/24 13:59:49;;;;;;;10.00;9.30;;;20.20;1.00;;;;;;2610931;54;20430;-81
2022/04/24 14:02:16;;;;;;;8.90;8.10;;;20.30;1.00;;;;;;2612476;54;20169;-80
2022/04/24 14:04:42;;;;;;;9.20;8.43;;;20.00;1.00;;;;;;2615976;54;20410;-85
2022/04/24 14:07:08;;;;;;;10.27;9.30;;;19.90;1.00;;;;;;2614969;54;20597;-82
2022/04/24 14:09:35;;;;;;;10.70;9.80;;;20.40;1.00;;;;;;2614747;51;20422;-81
2022/04/24 14:12:01;;;;;;;9.43;8.83;;;20.80;1.00;;;;;;2613956;54;20182;-82
2022/04/24 14:14:28;;;;;;;9.17;8.30;;;20.70;1.00;;;;;;2613213;54;20960;-80
2022/04/24 14:16:54;;;;;;;10.30;9.50;;;20.70;1.00;;;;;;2612960;54;20435;-80
2022/04/24 14:19:20;;;;;;;8.53;7.93;;;20.40;1.00;;;;;;2613671;54;20388;-75
2022/04/24 14:21:47;;;;;;;9.23;8.43;;;20.10;1.00;;;;;;2612981;54;20161;-76
2022/04/24 14:24:13;;;;;;;9.57;8.87;;;20.10;1.00;;;;;;2613206;46;20173;-76
2022/04/24 14:26:38;;;;;;;10.20;9.40;;;20.40;1.00;;;;;;2613496;54;20387;-76
2022/04/24 14:29:04;;;;;;;9.63;8.83;;;20.40;1.00;;;;;;2612962;54;20164;-76
2022/04/24 14:31:30;;;;;;;9.87;9.07;;;20.50;1.00;;;;;;2613956;47;20411;-76
2022/04/24 14:33:56;;;;;;;8.73;8.07;;;20.90;1.00;;;;;;2616737;54;20155;-87
2022/04/24 14:36:22;;;;;;;9.10;8.40;;;20.80;1.00;;;;;;2620625;54;20407;-86
2022/04/24 14:38:48;;;;;;;9.00;8.30;;;20.70;1.00;;;;;;2620125;47;20438;-74
2022/04/24 14:41:15;;;;;;;10.60;9.80;;;20.90;1.00;;;;;;2617521;54;20407;-75
2022/04/24 14:43:41;;;;;;;8.73;8.13;;;20.70;1.00;;;;;;2614483;54;20421;-76
2022/04/24 14:57:13;;;;;;;11.00;10.20;;;21.00;1.00;;;;;;2613294;54;20431;-78
2022/04/24 14:59:38;;;;;;;11.20;10.40;;;20.70;1.00;;;;;;2614570;54;20519;-82
2022/04/24 15:02:05;;;;;;;9.53;8.73;;;20.30;1.00;;;;;;2613533;54;20772;-79
2022/04/24 15:04:30;;;;;;;9.80;9.00;;;20.40;1.00;;;;;;2613997;54;20147;-77
2022/04/24 15:06:56;;;;;;;8.60;7.90;;;20.70;1.00;;;;;;2612413;54;20426;-77
2022/04/24 15:09:22;;;;;;;9.30;8.60;;;20.50;1.00;;;;;;2611492;47;20162;-76
2022/04/24 15:11:48;;;;;;;7.97;7.40;;;20.50;1.00;;;;;;2612234;54;20162;-78
2022/04/24 15:14:14;;;;;;;9.10;8.20;;;20.30;1.00;;;;;;2612846;54;20185;-76
2022/04/24 15:16:40;;;;;;;8.73;7.90;;;20.30;1.00;;;;;;2613160;54;20495;-76
2022/04/24 15:19:05;;;;;;;9.37;8.33;;;20.30;1.00;;;;;;2612994;47;20404;-80
2022/04/24 15:21:31;;;;;;;8.80;8.10;;;20.50;1.00;;;;;;2612604;54;20201;-80
2022/04/24 15:24:05;;;;;;;8.50;7.70;;;20.60;1.00;;;;;;2613294;54;20250;-83
2022/04/24 15:26:32;;;;;;;7.67;7.07;;;20.50;1.00;;;;;;2612518;47;20185;-82
2022/04/24 15:28:58;;;;;;;7.77;7.17;;;20.30;1.00;;;;;;2613249;54;20438;-74
2022/04/24 15:31:24;;;;;;;8.67;7.43;;;20.20;1.00;;;;;;2611671;54;20428;-75
2022/04/24 15:33:50;;;;;;;8.33;7.53;;;20.30;1.00;;;;;;2613317;54;21067;-74
2022/04/24 15:36:17;;;;;;;8.10;7.33;;;20.20;1.00;;;;;;2613256;54;20431;-73
2022/04/24 15:38:43;;;;;;;7.87;7.27;;;20.40;1.00;;;;;;2613878;54;20445;-81
2022/04/24 15:41:11;;;;;;;7.97;7.33;;;20.40;1.00;;;;;;2613358;54;20527;-79
2022/04/24 15:43:38;;;;;;;8.33;7.80;;;20.70;1.00;;;;;;2613215;39;20822;-76
2022/04/24 15:46:05;;;;;;;11.93;9.40;;;20.50;1.00;;;;;;2611865;47;20447;-76
2022/04/24 15:48:30;;;;;;;24.23;22.20;;;20.50;1.00;;;;;;2613594;54;20179;-78
2022/04/24 15:50:56;;;;;;;8.60;7.87;;;20.60;1.00;;;;;;2613699;54;20420;-76
2022/04/24 15:53:22;;;;;;;10.33;9.40;;;20.00;1.00;;;;;;2614179;54;20257;-86
2022/04/24 15:55:48;;;;;;;8.23;7.53;;;19.40;1.00;;;;;;2617489;54;20458;-87
2022/04/24 15:58:14;;;;;;;11.40;10.50;;;18.90;1.00;;;;;;2617870;39;20680;-86
2022/04/24 16:00:39;;;;;;;8.20;7.60;;;18.60;1.00;;;;;;2615600;54;20157;-86
2022/04/24 16:03:05;;;;;;;9.00;8.20;;;18.50;1.00;;;;;;2615366;47;20237;-83
2022/04/24 16:05:31;;;;;;;9.60;8.80;;;18.70;1.00;;;;;;2614974;54;21034;-83
2022/04/24 16:07:57;;;;;;;8.80;8.10;;;19.00;1.00;;;;;;2616053;54;20146;-86
2022/04/24 16:10:24;;;;;;;11.33;8.70;;;19.40;1.00;;;;;;2613061;54;21323;-76
2022/04/24 16:12:51;;;;;;;8.17;7.57;;;19.40;1.00;;;;;;2613512;54;20165;-76
2022/04/24 16:15:19;;;;;;;7.70;7.00;;;19.60;1.00;;;;;;2616790;39;20826;-87
2022/04/24 16:17:45;;;;;;;7.70;6.93;;;19.70;1.00;;;;;;2614901;47;20437;-87
2022/04/24 16:20:12;;;;;;;8.87;6.97;;;19.60;1.00;;;;;;2614526;54;20438;-80
2022/04/24 16:22:39;;;;;;;8.97;8.07;;;19.70;1.00;;;;;;2613293;51;20177;-79
2022/04/24 16:25:09;;;;;;;8.17;7.33;;;19.80;1.00;;;;;;2612114;54;20434;-79
2022/04/24 16:27:35;;;;;;;7.60;7.10;;;19.60;1.00;;;;;;2610183;54;20428;-78
2022/04/24 16:30:04;;;;;;;8.33;7.73;;;19.20;1.00;;;;;;2609901;54;20391;-79
2022/04/24 16:32:34;;;;;;;7.40;6.70;;;19.40;1.00;;;;;;2613327;31;20878;-79
2022/04/24 16:35:06;;;;;;;7.70;7.10;;;19.30;1.00;;;;;;2611906;39;20887;-74
2022/04/24 16:37:33;;;;;;;7.23;6.73;;;19.40;1.00;;;;;;2611887;54;20430;-74
2022/04/24 16:40:00;;;;;;;8.10;7.60;;;19.60;1.00;;;;;;2612083;49;20446;-75
2022/04/24 16:42:26;;;;;;;8.10;7.50;;;19.40;1.00;;;;;;2611113;54;20418;-75
2022/04/24 16:44:52;;;;;;;7.73;7.03;;;19.30;1.00;;;;;;2609586;54;21260;-75
2022/04/24 16:47:19;;;;;;;8.20;7.50;;;19.10;1.00;;;;;;2611296;54;20529;-75
2022/04/24 16:49:46;;;;;;;9.03;8.13;;;18.90;1.00;;;;;;2610496;54;20158;-74
2022/04/24 17:00:42;;;;;;;8.53;7.73;;;18.30;1.00;;;;;;2610176;54;21068;-74
2022/04/24 17:03:08;;;;;;;18.03;6.97;;;17.90;1.00;;;;;;2612338;54;20424;-75
2022/04/24 17:05:35;;;;;;;8.17;7.57;;;17.70;1.00;;;;;;2609590;31;20900;-73
2022/04/24 17:08:04;;;;;;;7.50;6.80;;;17.50;1.00;;;;;;2612200;54;21436;-74
2022/04/24 17:10:33;;;;;;;7.30;6.70;;;17.20;1.00;;;;;;2610179;54;20515;-73
2022/04/24 17:13:01;;;;;;;7.30;6.80;;;17.00;1.00;;;;;;2609865;46;20452;-74
2022/04/24 17:15:28;;;;;;;7.73;7.10;;;17.00;1.00;;;;;;2612082;54;20443;-74
2022/04/24 17:17:55;;;;;;;7.03;6.53;;;16.90;1.00;;;;;;2611173;39;20787;-74
2022/04/24 17:20:23;;;;;;;7.77;7.00;;;16.70;1.00;;;;;;2610836;54;20418;-75
2022/04/24 17:22:48;;;;;;;9.47;7.17;;;16.70;1.00;;;;;;2608030;54;20424;-75
2022/04/24 17:25:14;;;;;;;7.83;7.30;;;16.70;1.00;;;;;;2610341;54;20420;-74
2022/04/24 17:27:40;;;;;;;7.50;6.80;;;16.70;1.00;;;;;;2610162;47;20543;-75
2022/04/24 17:30:07;;;;;;;14.73;10.80;;;16.70;1.00;;;;;;2612571;54;21218;-74
2022/04/24 17:32:36;;;;;;;10.20;9.20;;;16.60;1.00;;;;;;2611758;47;20472;-75
2022/04/24 17:35:02;;;;;;;13.57;9.73;;;16.60;1.00;;;;;;2612346;39;20913;-76
2022/04/24 17:37:28;;;;;;;79.53;53.50;;;16.50;1.00;;;;;;2610805;54;20403;-74
2022/04/24 17:39:56;;;;;;;8.90;8.10;;;16.40;1.00;;;;;;2613281;54;20404;-84
2022/04/24 17:42:22;;;;;;;39.30;32.50;;;16.30;1.00;;;;;;2619674;54;20392;-87
2022/04/24 17:44:48;;;;;;;6.63;6.13;;;16.30;1.00;;;;;;2615028;47;20427;-77
2022/04/24 17:47:14;;;;;;;7.93;7.23;;;16.20;1.00;;;;;;2610574;49;20178;-75
2022/04/24 17:49:40;;;;;;;7.77;6.97;;;16.10;1.00;;;;;;2613554;39;20630;-82
2022/04/24 17:52:11;;;;;;;9.87;7.53;;;16.10;1.00;;;;;;2613560;54;20443;-82